createdAt,value
2023-04-19T00:01:13.692Z,49.52
2023-04-19T00:06:16.389Z,49.42
2023-04-19T00:11:18.755Z,49.35
2023-04-19T00:16:21.763Z,48.92
2023-04-19T00:21:24.075Z,49.22
2023-04-19T00:26:26.567Z,49.27
2023-04-19T00:31:29.001Z,48.92
2023-04-19T00:36:32.743Z,48.78
2023-04-19T00:41:35.095Z,48.93
2023-04-19T00:46:40.180Z,48.59
2023-04-19T00:51:42.962Z,48.63
2023-04-19T00:56:46.561Z,48.29
2023-04-19T01:01:49.005Z,48.38
2023-04-19T01:06:51.719Z,48.21
2023-04-19T01:11:54.668Z,47.98
2023-04-19T01:16:57.981Z,47.91
2023-04-19T01:22:03.452Z,47.54
2023-04-19T01:27:09.156Z,47.19
2023-04-19T01:32:13.396Z,46.84
2023-04-19T01:37:15.815Z,47.10
2023-04-19T01:42:18.148Z,46.61
2023-04-19T01:47:20.481Z,46.92
2023-04-19T01:52:24.138Z,46.99
2023-04-19T01:57:26.482Z,46.79
2023-04-19T02:02:29.016Z,46.89
2023-04-19T02:07:31.374Z,46.51
2023-04-19T02:12:34.897Z,46.40
2023-04-19T02:17:39.262Z,46.03
2023-04-19T02:22:41.956Z,46.28
2023-04-19T02:27:46.683Z,46.40
2023-04-19T02:32:49.914Z,46.60
2023-04-19T02:37:52.272Z,46.23
2023-04-19T02:42:54.566Z,46.48
2023-04-19T02:47:57.325Z,46.31
2023-04-19T02:53:03.009Z,46.80
2023-04-19T02:58:06.794Z,46.31
2023-04-19T03:03:15.025Z,45.98
2023-04-19T03:08:17.848Z,46.43
2023-04-19T03:13:21.339Z,46.20
2023-04-19T03:18:23.985Z,46.05
2023-04-19T03:23:28.637Z,45.87
2023-04-19T03:28:34.143Z,45.93
2023-04-19T03:33:55.290Z,45.68
2023-04-19T03:39:04.505Z,45.77
2023-04-19T03:44:06.958Z,45.80
2023-04-19T03:49:09.594Z,45.92
2023-04-19T03:54:13.018Z,46.00
2023-04-19T03:59:15.610Z,45.96
2023-04-19T04:04:19.022Z,45.59
2023-04-19T04:09:21.978Z,45.74
2023-04-19T04:14:24.993Z,45.44
2023-04-19T04:19:27.438Z,45.24
2023-04-19T04:24:33.196Z,45.30
2023-04-19T04:29:53.538Z,44.98
2023-04-19T04:34:59.104Z,44.86
2023-04-19T04:40:11.933Z,44.70
2023-04-19T04:45:14.338Z,44.50
2023-04-19T04:50:19.105Z,44.40
2023-04-19T04:55:23.882Z,44.57
2023-04-19T05:00:26.996Z,44.44
2023-04-19T05:05:34.886Z,44.21
2023-04-19T05:10:37.354Z,43.95
2023-04-19T05:15:40.154Z,44.44
2023-04-19T05:20:44.325Z,44.00
2023-04-19T05:25:53.078Z,43.85
2023-04-19T05:30:58.170Z,42.78
2023-04-19T05:36:05.764Z,42.58
2023-04-19T05:41:08.828Z,42.01
2023-04-19T05:46:11.308Z,41.62
2023-04-19T05:51:14.637Z,41.20
2023-04-19T05:56:37.184Z,41.05
2023-04-19T06:01:39.933Z,40.60
2023-04-19T06:06:42.407Z,39.47
2023-04-19T06:11:50.655Z,39.08
2023-04-19T06:16:53.790Z,38.09
2023-04-19T06:21:56.226Z,37.25
2023-04-19T06:26:58.637Z,36.99
2023-04-19T06:32:01.083Z,36.22
2023-04-19T06:37:04.194Z,35.54
2023-04-19T06:42:06.739Z,35.63
2023-04-19T06:47:09.331Z,35.83
2023-04-19T06:52:14.608Z,34.73
2023-04-19T06:57:17.611Z,34.11
2023-04-19T07:02:20.114Z,34.51
2023-04-19T07:07:22.681Z,35.30
2023-04-19T07:12:25.044Z,34.71
2023-04-19T07:17:27.454Z,34.49
2023-04-19T07:22:29.980Z,34.30
2023-04-19T07:27:32.413Z,34.94
2023-04-19T07:32:34.940Z,33.83
2023-04-19T07:37:40.686Z,33.52
2023-04-19T07:42:43.869Z,33.86
2023-04-19T07:47:46.614Z,33.36
2023-04-19T07:52:48.957Z,32.77
2023-04-19T07:57:51.253Z,32.93
2023-04-19T08:02:53.822Z,32.69
2023-04-19T08:07:57.208Z,32.77
2023-04-19T08:13:05.677Z,32.69
2023-04-19T08:18:08.584Z,31.84
2023-04-19T08:23:21.332Z,31.75
2023-04-19T08:28:25.080Z,30.91
2023-04-19T08:33:29.280Z,30.52
2023-04-19T08:38:31.797Z,30.80
2023-04-19T08:43:36.374Z,30.14
2023-04-19T08:48:38.956Z,30.00
2023-04-19T08:53:41.774Z,30.25
2023-04-19T08:58:58.006Z,30.24
2023-04-19T09:09:34.049Z,29.27
2023-04-19T09:14:57.803Z,30.16
2023-04-19T09:20:06.119Z,29.41
2023-04-19T09:30:24.042Z,28.79
2023-04-19T09:35:48.765Z,28.18
2023-04-19T09:40:51.283Z,27.79
2023-04-19T09:45:53.645Z,28.41
2023-04-19T09:51:05.477Z,27.75
2023-04-19T09:56:13.104Z,27.59
2023-04-19T10:01:17.126Z,27.53
2023-04-19T10:11:27.746Z,27.46
2023-04-19T10:16:31.573Z,27.53
2023-04-19T10:21:34.740Z,27.23
2023-04-19T10:27:03.397Z,28.29
2023-04-19T10:32:14.193Z,27.69
2023-04-19T10:37:16.746Z,27.07
2023-04-19T10:42:19.387Z,27.60
2023-04-19T10:47:46.735Z,26.81
2023-04-19T10:52:49.194Z,27.72
2023-04-19T10:58:07.531Z,27.66
2023-04-19T11:03:44.353Z,27.57
2023-04-19T11:08:47.490Z,27.34
2023-04-19T11:13:49.952Z,26.64
2023-04-19T11:18:52.206Z,26.52
2023-04-19T11:24:10.313Z,27.18
2023-04-19T11:29:13.185Z,27.30
2023-04-19T11:34:15.949Z,26.49
2023-04-19T11:39:19.144Z,26.28
2023-04-19T11:44:21.926Z,26.94
2023-04-19T11:49:32.014Z,26.58
2023-04-19T11:54:34.466Z,26.33
2023-04-19T11:59:37.318Z,26.30
2023-04-19T12:04:40.470Z,26.69
2023-04-19T12:09:42.873Z,26.41
2023-04-19T12:14:53.121Z,25.12
2023-04-19T12:19:55.559Z,25.59
2023-04-19T12:24:58.014Z,25.39
2023-04-19T12:30:03.373Z,26.08
2023-04-19T12:35:07.477Z,26.01
2023-04-19T12:40:10.548Z,25.94
2023-04-19T12:45:13.850Z,25.95
2023-04-19T12:50:16.704Z,25.14
2023-04-19T12:55:19.145Z,25.73
2023-04-19T13:00:22.550Z,25.59
2023-04-19T13:05:25.140Z,25.36
2023-04-19T13:10:27.642Z,25.40
2023-04-19T13:15:30.164Z,25.15
2023-04-19T13:20:32.534Z,25.10
2023-04-19T13:25:34.866Z,24.80
2023-04-19T13:30:37.192Z,25.32
2023-04-19T13:35:39.640Z,25.18
2023-04-19T13:40:41.968Z,24.89
2023-04-19T13:45:44.254Z,24.96
2023-04-19T13:50:46.593Z,24.60
2023-04-19T13:55:49.264Z,24.80
2023-04-19T14:00:52.577Z,24.76
2023-04-19T14:05:55.261Z,24.28
2023-04-19T14:10:57.615Z,24.82
2023-04-19T14:16:00.081Z,24.63
2023-04-19T14:21:02.513Z,24.47
2023-04-19T14:26:04.885Z,24.85
2023-04-19T14:31:07.307Z,25.04
2023-04-19T14:36:09.787Z,24.60
2023-04-19T14:41:12.276Z,24.31
2023-04-19T14:46:14.627Z,25.45
2023-04-19T14:51:17.071Z,24.97
2023-04-19T14:56:19.493Z,24.91
2023-04-19T15:01:23.627Z,24.79
2023-04-19T15:06:26.061Z,25.41
2023-04-19T15:11:28.406Z,25.19
2023-04-19T15:16:31.000Z,25.46
2023-04-19T15:21:33.497Z,25.45
2023-04-19T15:26:36.311Z,25.10
2023-04-19T15:31:38.996Z,24.76
2023-04-19T15:36:41.666Z,25.58
2023-04-19T15:41:44.035Z,26.04
2023-04-19T15:46:46.615Z,25.88
2023-04-19T15:51:49.037Z,25.66
2023-04-19T15:56:51.490Z,25.85
2023-04-19T16:01:53.888Z,25.92
2023-04-19T16:06:56.436Z,26.19
2023-04-19T16:11:58.846Z,26.47
2023-04-19T16:17:01.508Z,26.53
2023-04-19T16:22:05.757Z,26.10
2023-04-19T16:27:08.131Z,26.50
2023-04-19T16:32:11.125Z,26.76
2023-04-19T16:37:16.333Z,27.34
2023-04-19T16:42:18.750Z,27.30
2023-04-19T16:47:22.228Z,27.32
2023-04-19T16:52:29.501Z,28.16
2023-04-19T16:57:32.244Z,28.59
2023-04-19T17:02:34.861Z,29.14
2023-04-19T17:07:37.407Z,29.24
2023-04-19T17:12:39.942Z,29.48
2023-04-19T17:17:43.166Z,29.65
2023-04-19T17:22:45.664Z,30.34
2023-04-19T17:27:48.134Z,30.45
2023-04-19T17:32:51.511Z,30.97
2023-04-19T17:37:53.996Z,31.09
2023-04-19T17:42:56.450Z,31.64
2023-04-19T17:47:58.839Z,31.78
2023-04-19T17:53:01.394Z,32.17
2023-04-19T17:58:03.893Z,32.44
2023-04-19T18:03:07.452Z,33.05
2023-04-19T18:08:10.295Z,33.32
2023-04-19T18:13:12.817Z,33.16
2023-04-19T18:18:15.335Z,33.61
2023-04-19T18:23:17.813Z,33.60
2023-04-19T18:28:20.221Z,34.15
2023-04-19T18:33:22.769Z,34.30
2023-04-19T18:38:25.433Z,34.51
2023-04-19T18:43:31.757Z,34.79
2023-04-19T18:48:34.175Z,34.91
2023-04-19T18:53:36.755Z,35.03
2023-04-19T18:58:39.089Z,35.28
2023-04-19T19:04:07.727Z,35.51
2023-04-19T19:09:04.312Z,35.45
2023-04-19T19:14:06.651Z,35.86
2023-04-19T19:19:09.366Z,35.91
2023-04-19T19:24:11.893Z,36.14
2023-04-19T19:29:16.313Z,36.27
2023-04-19T19:34:27.172Z,36.49
2023-04-19T19:39:32.801Z,36.62
2023-04-19T19:44:35.229Z,36.92
2023-04-19T19:54:43.072Z,37.32
2023-04-19T19:59:51.724Z,37.25
2023-04-19T20:04:57.715Z,37.23
2023-04-19T20:10:00.340Z,37.37
2023-04-19T20:15:03.471Z,37.54
2023-04-19T20:20:11.712Z,38.09
2023-04-19T20:25:14.194Z,38.06
2023-04-19T20:30:16.655Z,37.88
2023-04-19T20:35:19.208Z,38.46
2023-04-19T20:40:23.305Z,38.57
2023-04-19T20:45:26.231Z,38.78
2023-04-19T20:50:30.610Z,39.12
2023-04-19T20:55:32.930Z,39.27
2023-04-19T21:00:35.317Z,39.51
2023-04-19T21:05:37.667Z,39.70
2023-04-19T21:10:39.998Z,39.88
2023-04-19T21:15:42.395Z,40.24
2023-04-19T21:20:45.002Z,40.41
2023-04-19T21:25:47.310Z,40.51
2023-04-19T21:30:49.706Z,40.65
2023-04-19T21:35:52.104Z,41.09
2023-04-19T21:40:54.507Z,41.18
2023-04-19T21:45:56.856Z,41.43
2023-04-19T21:50:59.183Z,41.58
2023-04-19T21:56:03.160Z,41.78
2023-04-19T22:01:05.534Z,41.98
2023-04-19T22:06:08.846Z,42.00
2023-04-19T22:11:12.302Z,42.15
2023-04-19T22:16:15.330Z,42.31
2023-04-19T22:21:17.625Z,42.32
2023-04-19T22:26:21.468Z,42.56
2023-04-19T22:31:23.801Z,42.58
2023-04-19T22:36:26.599Z,42.48
2023-04-19T22:41:29.139Z,42.33
2023-04-19T22:46:31.505Z,42.37
2023-04-19T22:51:36.999Z,42.56
2023-04-19T22:56:39.774Z,42.56
2023-04-19T23:01:43.411Z,42.89
2023-04-19T23:06:45.894Z,43.00
2023-04-19T23:11:48.171Z,43.22
2023-04-19T23:16:50.515Z,43.48
2023-04-19T23:21:52.801Z,43.41
2023-04-19T23:26:55.126Z,43.67
2023-04-19T23:31:58.168Z,44.02
2023-04-19T23:37:00.709Z,43.90
2023-04-19T23:42:03.415Z,44.28
2023-04-19T23:47:05.942Z,44.43
2023-04-19T23:52:08.278Z,44.65
2023-04-19T23:57:10.531Z,44.98
